createdAt,value
2017-10-27T00:00:46.233Z,23.90
2017-10-27T00:01:46.246Z,26.20
2017-10-27T00:02:46.260Z,23.50
2017-10-27T00:03:25.199Z,22.00
2017-10-27T00:04:46.216Z,22.10
2017-10-27T00:05:46.241Z,24.40
2017-10-27T00:06:46.206Z,25.40
2017-10-27T00:07:25.183Z,23.60
2017-10-27T00:08:46.231Z,25.20
2017-10-27T00:09:46.212Z,24.10
2017-10-27T00:10:46.221Z,21.60
2017-10-27T00:11:25.165Z,23.40
2017-10-27T00:12:46.248Z,24.70
2017-10-27T00:13:46.228Z,23.30
2017-10-27T00:14:46.201Z,25.20
2017-10-27T00:15:25.142Z,22.00
2017-10-27T00:16:46.160Z,23.40
2017-10-27T00:17:46.140Z,23.40
2017-10-27T00:18:46.178Z,24.50
2017-10-27T00:19:25.131Z,22.30
2017-10-27T00:20:46.136Z,23.20
2017-10-27T00:21:46.124Z,24.50
2017-10-27T00:22:46.134Z,24.80
2017-10-27T00:23:25.111Z,25.90
2017-10-27T00:24:46.157Z,23.80
2017-10-27T00:25:46.120Z,24.40
2017-10-27T00:26:46.150Z,26.90
2017-10-27T00:27:25.083Z,25.60
2017-10-27T00:28:46.096Z,25.00
2017-10-27T00:29:46.092Z,24.90
2017-10-27T00:30:47.563Z,26.20
2017-10-27T00:31:25.080Z,26.70
2017-10-27T00:32:46.080Z,29.10
2017-10-27T00:33:46.078Z,25.50
2017-10-27T00:34:46.068Z,25.70
2017-10-27T00:35:25.060Z,25.90
2017-10-27T00:36:46.054Z,25.50
2017-10-27T00:37:46.060Z,25.80
2017-10-27T00:38:46.045Z,28.50
2017-10-27T00:39:25.037Z,28.50
2017-10-27T00:40:46.040Z,28.60
2017-10-27T00:41:46.049Z,27.60
2017-10-27T00:42:46.035Z,24.90
2017-10-27T00:43:25.023Z,29.30
2017-10-27T00:44:46.025Z,29.00
2017-10-27T00:45:46.031Z,28.20
2017-10-27T00:46:46.024Z,27.70
2017-10-27T00:47:25.009Z,26.60
2017-10-27T00:48:46.009Z,27.80
2017-10-27T00:49:46.006Z,26.80
2017-10-27T00:50:46.025Z,26.40
2017-10-27T00:51:24.987Z,25.90
2017-10-27T00:52:45.996Z,27.00
2017-10-27T00:53:45.981Z,25.80
2017-10-27T00:54:45.978Z,29.50
2017-10-27T00:55:24.976Z,28.80
2017-10-27T00:56:45.975Z,28.80
2017-10-27T00:57:45.972Z,26.90
2017-10-27T00:58:45.965Z,28.50
2017-10-27T00:59:24.953Z,26.20
2017-10-27T01:00:45.959Z,28.50
2017-10-27T01:01:45.969Z,27.30
2017-10-27T01:02:45.959Z,25.80
2017-10-27T01:03:24.940Z,29.20
2017-10-27T01:04:45.945Z,30.20
2017-10-27T01:05:45.938Z,26.70
2017-10-27T01:06:45.938Z,25.70
2017-10-27T01:07:24.925Z,26.30
2017-10-27T01:08:45.956Z,26.70
2017-10-27T01:09:45.928Z,26.50
2017-10-27T01:10:45.916Z,29.80
2017-10-27T01:11:24.902Z,24.80
2017-10-27T01:12:45.919Z,26.00
2017-10-27T01:13:45.902Z,28.20
2017-10-27T01:14:45.899Z,28.80
2017-10-27T01:15:24.887Z,28.10
2017-10-27T01:16:45.897Z,27.00
2017-10-27T01:17:45.880Z,27.70
2017-10-27T01:18:45.880Z,26.20
2017-10-27T01:19:24.863Z,26.70
2017-10-27T01:20:45.873Z,26.10
2017-10-27T01:21:45.874Z,28.80
2017-10-27T01:22:46.269Z,26.30
2017-10-27T01:23:24.849Z,26.70
2017-10-27T01:24:45.859Z,27.90
2017-10-27T01:25:45.851Z,30.60
2017-10-27T01:26:45.855Z,27.70
2017-10-27T01:27:24.842Z,28.80
2017-10-27T01:28:45.839Z,28.20
2017-10-27T01:29:45.845Z,27.70
2017-10-27T01:30:45.830Z,27.70
2017-10-27T01:31:24.822Z,28.40
2017-10-27T01:32:45.823Z,28.20
2017-10-27T01:33:45.820Z,26.70
2017-10-27T01:34:45.815Z,28.10
2017-10-27T01:35:24.794Z,29.70
2017-10-27T01:36:45.808Z,34.10
2017-10-27T01:37:45.800Z,33.70
2017-10-27T01:38:45.803Z,31.40
2017-10-27T01:39:24.792Z,31.90
2017-10-27T01:40:45.798Z,33.60
2017-10-27T01:41:45.785Z,31.30
2017-10-27T01:42:45.782Z,29.30
2017-10-27T01:43:24.808Z,28.70
2017-10-27T01:44:45.775Z,29.30
2017-10-27T01:45:45.767Z,30.40
2017-10-27T01:46:45.775Z,30.50
2017-10-27T01:47:24.755Z,29.40
2017-10-27T01:48:45.763Z,28.10
2017-10-27T01:49:45.765Z,30.60
2017-10-27T01:50:45.750Z,28.40
2017-10-27T01:51:24.738Z,29.20
2017-10-27T01:52:45.737Z,29.60
2017-10-27T01:53:45.733Z,31.50
2017-10-27T01:54:45.729Z,28.50
2017-10-27T01:55:24.713Z,31.80
2017-10-27T01:56:45.719Z,31.10
2017-10-27T01:57:45.714Z,29.60
2017-10-27T01:58:45.715Z,29.40
2017-10-27T01:59:24.703Z,30.80
2017-10-27T02:00:45.705Z,30.80
2017-10-27T02:01:45.697Z,31.40
2017-10-27T02:02:45.706Z,34.70
2017-10-27T02:03:24.680Z,34.40
2017-10-27T02:04:45.686Z,33.10
2017-10-27T02:05:45.681Z,33.00
2017-10-27T02:06:45.679Z,31.90
2017-10-27T02:07:24.666Z,33.30
2017-10-27T02:08:45.669Z,31.50
2017-10-27T02:09:45.661Z,34.00
2017-10-27T02:10:45.665Z,31.00
2017-10-27T02:11:24.648Z,31.10
2017-10-27T02:12:45.656Z,31.00
2017-10-27T02:13:45.655Z,28.30
2017-10-27T02:14:45.643Z,27.70
2017-10-27T02:15:24.634Z,29.50
2017-10-27T02:16:45.630Z,30.50
2017-10-27T02:17:45.629Z,31.30
2017-10-27T02:18:45.624Z,27.10
2017-10-27T02:19:24.614Z,27.30
2017-10-27T02:20:45.625Z,26.50
2017-10-27T02:21:45.612Z,25.90
2017-10-27T02:22:45.612Z,30.10
2017-10-27T02:23:24.599Z,27.00
2017-10-27T02:24:45.600Z,28.50
2017-10-27T02:25:45.601Z,31.90
2017-10-27T02:26:45.595Z,30.00
2017-10-27T02:27:24.581Z,28.70
2017-10-27T02:28:45.586Z,28.60
2017-10-27T02:29:45.578Z,29.80
2017-10-27T02:30:45.576Z,28.20
2017-10-27T02:31:24.566Z,27.70
2017-10-27T02:32:45.600Z,28.60
2017-10-27T02:33:45.568Z,26.30
2017-10-27T02:34:45.558Z,29.30
2017-10-27T02:35:24.550Z,30.00
2017-10-27T02:36:45.548Z,27.50
2017-10-27T02:37:45.550Z,27.10
2017-10-27T02:38:45.541Z,26.90
2017-10-27T02:39:24.534Z,27.70
2017-10-27T02:40:45.530Z,27.40
2017-10-27T02:41:45.529Z,25.80
2017-10-27T02:42:45.529Z,26.10
2017-10-27T02:43:24.524Z,27.70
2017-10-27T02:44:45.518Z,26.80
2017-10-27T02:45:45.550Z,26.30
2017-10-27T02:46:45.510Z,24.40
2017-10-27T02:47:24.510Z,25.00
2017-10-27T02:48:45.501Z,26.30
2017-10-27T02:49:45.499Z,23.20
2017-10-27T02:50:45.493Z,27.70
2017-10-27T02:51:24.484Z,25.90
2017-10-27T02:52:45.489Z,28.70
2017-10-27T02:53:45.519Z,23.10
2017-10-27T02:54:45.480Z,23.20
2017-10-27T02:55:24.464Z,25.00
2017-10-27T02:56:45.478Z,24.30
2017-10-27T02:57:45.471Z,25.00
2017-10-27T02:58:45.470Z,21.30
2017-10-27T02:59:24.449Z,19.50
2017-10-27T03:00:45.452Z,16.50
2017-10-27T03:01:45.446Z,14.90
2017-10-27T03:02:45.444Z,12.60
2017-10-27T03:03:24.437Z,9.90
2017-10-27T03:04:45.440Z,9.50
2017-10-27T03:05:45.528Z,8.60
2017-10-27T03:06:45.426Z,8.10
2017-10-27T03:07:24.419Z,6.60
2017-10-27T03:08:45.420Z,7.30
2017-10-27T03:09:45.417Z,8.10
2017-10-27T03:10:45.407Z,6.80
2017-10-27T03:11:24.399Z,6.70
2017-10-27T03:12:45.405Z,11.40
2017-10-27T03:13:45.394Z,4.80
2017-10-27T03:14:45.400Z,5.40
2017-10-27T03:15:24.391Z,5.00
2017-10-27T03:16:45.391Z,5.00
2017-10-27T03:17:45.375Z,5.80
2017-10-27T03:18:45.374Z,5.10
2017-10-27T03:19:24.367Z,4.30
2017-10-27T03:20:45.380Z,4.70
2017-10-27T03:21:45.406Z,4.20
2017-10-27T03:22:45.356Z,5.50
2017-10-27T03:23:24.348Z,4.90
2017-10-27T03:24:45.355Z,6.90
2017-10-27T03:25:45.348Z,4.50
2017-10-27T03:26:45.344Z,5.20
2017-10-27T03:27:24.332Z,5.90
2017-10-27T03:28:45.336Z,6.40
2017-10-27T03:29:45.324Z,4.60
2017-10-27T03:30:45.325Z,7.60
2017-10-27T03:31:24.310Z,5.90
2017-10-27T03:32:45.320Z,5.80
2017-10-27T03:33:45.313Z,6.30
2017-10-27T03:34:45.303Z,6.30
2017-10-27T03:35:25.584Z,6.50
2017-10-27T03:36:45.298Z,6.40
2017-10-27T03:37:45.293Z,4.80
2017-10-27T03:38:45.290Z,5.40
2017-10-27T03:39:24.274Z,4.30
2017-10-27T03:40:45.280Z,4.80
2017-10-27T03:41:45.288Z,7.00
2017-10-27T03:42:45.274Z,5.90
2017-10-27T03:43:24.260Z,4.00
2017-10-27T03:44:45.262Z,5.10
2017-10-27T03:45:45.275Z,4.10
2017-10-27T03:46:45.254Z,4.60
2017-10-27T03:47:24.253Z,4.10
2017-10-27T03:48:45.251Z,4.60
2017-10-27T03:49:45.242Z,6.50
2017-10-27T03:50:45.231Z,8.50
2017-10-27T03:51:24.222Z,5.00
2017-10-27T03:52:45.228Z,5.80
2017-10-27T03:53:45.219Z,4.40
2017-10-27T03:54:45.255Z,7.40
2017-10-27T03:55:24.206Z,5.50
2017-10-27T03:56:45.221Z,7.30
2017-10-27T03:57:45.206Z,5.30
2017-10-27T03:58:45.199Z,5.50
2017-10-27T03:59:24.193Z,5.50
2017-10-27T04:00:45.193Z,5.50
2017-10-27T04:01:45.183Z,5.30
2017-10-27T04:02:45.187Z,6.10
2017-10-27T04:03:24.176Z,6.40
2017-10-27T04:04:45.175Z,6.00
2017-10-27T04:05:45.165Z,5.00
2017-10-27T04:06:45.171Z,6.70
2017-10-27T04:07:24.151Z,7.50
2017-10-27T04:08:45.150Z,6.80
2017-10-27T04:09:45.155Z,6.10
2017-10-27T04:10:45.150Z,5.70
2017-10-27T04:11:24.139Z,7.10
2017-10-27T04:12:45.141Z,5.20
2017-10-27T04:13:45.134Z,7.80
2017-10-27T04:14:45.132Z,7.20
2017-10-27T04:15:24.119Z,8.80
2017-10-27T04:16:45.117Z,9.70
2017-10-27T04:17:45.116Z,9.80
2017-10-27T04:18:45.111Z,8.20
2017-10-27T04:19:24.103Z,8.20
2017-10-27T04:20:45.102Z,8.20
2017-10-27T04:21:45.101Z,7.30
2017-10-27T04:22:45.096Z,9.10
2017-10-27T04:23:24.081Z,8.80
2017-10-27T04:24:45.089Z,7.70
2017-10-27T04:25:45.078Z,8.80
2017-10-27T04:26:45.079Z,12.20
2017-10-27T04:27:24.065Z,11.30
2017-10-27T04:28:45.205Z,10.00
2017-10-27T04:29:45.058Z,11.10
2017-10-27T04:30:45.057Z,9.90
2017-10-27T04:31:24.047Z,8.60
2017-10-27T04:32:45.043Z,10.20
2017-10-27T04:33:45.047Z,10.70
2017-10-27T04:34:45.037Z,10.40
2017-10-27T04:35:24.049Z,12.40
2017-10-27T04:36:45.030Z,13.20
2017-10-27T04:37:45.026Z,11.40
2017-10-27T04:38:45.022Z,12.90
2017-10-27T04:39:24.007Z,11.70
2017-10-27T04:40:45.013Z,12.90
2017-10-27T04:41:45.004Z,11.90
2017-10-27T04:42:45.003Z,14.60
2017-10-27T04:43:23.994Z,14.00
2017-10-27T04:44:44.990Z,13.70
2017-10-27T04:45:44.992Z,13.80
2017-10-27T04:46:44.988Z,11.70
2017-10-27T04:47:23.975Z,13.80
2017-10-27T04:48:44.978Z,14.10
2017-10-27T04:49:44.972Z,14.10
2017-10-27T04:50:44.971Z,14.10
2017-10-27T04:51:23.961Z,14.30
2017-10-27T04:52:44.961Z,17.00
2017-10-27T04:53:44.949Z,16.40
2017-10-27T04:54:44.951Z,15.10
2017-10-27T04:55:23.970Z,15.00
2017-10-27T04:56:44.938Z,14.70
2017-10-27T04:57:44.933Z,13.80
2017-10-27T04:58:44.930Z,15.10
2017-10-27T04:59:23.920Z,12.80
2017-10-27T05:00:44.922Z,11.60
2017-10-27T05:01:44.923Z,13.60
2017-10-27T05:02:44.917Z,12.30
2017-10-27T05:03:23.908Z,12.60
2017-10-27T05:04:44.902Z,12.70
2017-10-27T05:05:44.900Z,13.30
2017-10-27T05:06:44.893Z,12.40
2017-10-27T05:07:23.880Z,12.70
2017-10-27T05:08:44.894Z,13.30
2017-10-27T05:09:44.877Z,13.50
2017-10-27T05:10:44.874Z,14.70
2017-10-27T05:11:23.861Z,13.30
2017-10-27T05:12:44.866Z,12.90
2017-10-27T05:13:44.865Z,13.20
2017-10-27T05:14:44.856Z,14.20
2017-10-27T05:15:23.852Z,14.60
2017-10-27T05:16:44.856Z,14.40
2017-10-27T05:17:44.844Z,15.50
2017-10-27T05:18:44.841Z,15.80
2017-10-27T05:19:23.830Z,14.10
2017-10-27T05:20:44.829Z,15.50
2017-10-27T05:21:44.821Z,15.10
2017-10-27T05:22:44.824Z,14.80
2017-10-27T05:23:23.813Z,16.70
2017-10-27T05:24:44.810Z,16.00
2017-10-27T05:25:44.811Z,15.20
2017-10-27T05:26:44.799Z,16.60
2017-10-27T05:27:23.796Z,14.70
2017-10-27T05:28:44.795Z,13.70
2017-10-27T05:29:44.795Z,14.80
2017-10-27T05:30:44.784Z,13.50
2017-10-27T05:31:23.775Z,15.40
2017-10-27T05:32:44.777Z,15.30
2017-10-27T05:33:44.769Z,12.50
2017-10-27T05:34:44.763Z,11.50
2017-10-27T05:35:23.752Z,11.60
2017-10-27T05:36:44.755Z,11.30
2017-10-27T05:37:44.748Z,10.70
2017-10-27T05:38:44.740Z,12.30
2017-10-27T05:39:23.731Z,9.80
2017-10-27T05:40:44.733Z,10.20
2017-10-27T05:41:44.734Z,11.80
2017-10-27T05:42:44.723Z,9.40
2017-10-27T05:43:23.714Z,9.30
2017-10-27T05:44:44.720Z,10.10
2017-10-27T05:45:44.715Z,9.50
2017-10-27T05:46:44.711Z,8.50
2017-10-27T05:47:23.697Z,9.20
2017-10-27T05:48:44.697Z,7.50
2017-10-27T05:49:44.687Z,9.20
2017-10-27T05:50:44.690Z,9.20
2017-10-27T05:51:23.678Z,9.80
2017-10-27T05:52:44.677Z,9.30
2017-10-27T05:53:44.675Z,9.40
2017-10-27T05:54:44.670Z,9.40
2017-10-27T05:55:23.660Z,10.00
2017-10-27T05:56:44.660Z,9.70
2017-10-27T05:57:44.656Z,10.00
2017-10-27T05:58:44.660Z,9.00
2017-10-27T05:59:23.646Z,11.30
2017-10-27T06:00:44.660Z,9.80
2017-10-27T06:01:44.673Z,10.40
2017-10-27T06:02:44.630Z,11.90
2017-10-27T06:03:23.619Z,10.70
2017-10-27T06:04:44.649Z,13.10
2017-10-27T06:05:44.622Z,11.60
2017-10-27T06:06:44.611Z,13.40
2017-10-27T06:07:23.612Z,12.20
2017-10-27T06:08:44.607Z,10.90
2017-10-27T06:09:44.602Z,10.90
2017-10-27T06:10:44.602Z,12.00
2017-10-27T06:11:23.585Z,12.40
2017-10-27T06:12:44.587Z,10.50
2017-10-27T06:13:44.580Z,11.20
2017-10-27T06:14:44.578Z,11.60
2017-10-27T06:15:23.565Z,10.00
2017-10-27T06:16:44.568Z,11.10
2017-10-27T06:17:45.148Z,12.90
2017-10-27T06:18:44.556Z,10.70
2017-10-27T06:19:23.540Z,11.60
2017-10-27T06:20:44.544Z,10.90
2017-10-27T06:21:44.544Z,10.60
2017-10-27T06:22:44.536Z,10.80
2017-10-27T06:23:23.528Z,10.70
2017-10-27T06:24:44.543Z,12.80
2017-10-27T06:25:44.529Z,12.00
2017-10-27T06:26:44.522Z,10.40
2017-10-27T06:27:23.524Z,12.40
2017-10-27T06:28:44.508Z,10.80
2017-10-27T06:29:44.501Z,9.70
2017-10-27T06:30:44.498Z,11.00
2017-10-27T06:31:23.495Z,11.50
2017-10-27T06:32:44.501Z,12.00
2017-10-27T06:33:44.487Z,9.90
2017-10-27T06:34:44.485Z,10.70
2017-10-27T06:35:23.475Z,8.70
2017-10-27T06:36:44.475Z,8.40
2017-10-27T06:37:44.468Z,8.50
2017-10-27T06:38:44.469Z,10.90
2017-10-27T06:39:23.450Z,7.20
2017-10-27T06:40:44.460Z,10.10
2017-10-27T06:41:44.508Z,9.40
2017-10-27T06:42:44.443Z,10.20
2017-10-27T06:43:23.431Z,10.60
2017-10-27T06:44:44.437Z,8.20
2017-10-27T06:45:44.426Z,7.80
2017-10-27T06:46:44.427Z,8.40
2017-10-27T06:47:23.434Z,10.40
2017-10-27T06:48:44.417Z,10.50
2017-10-27T06:49:44.416Z,10.20
2017-10-27T06:50:44.410Z,10.50
2017-10-27T06:51:23.398Z,9.10
2017-10-27T06:52:44.393Z,10.50
2017-10-27T06:53:44.398Z,12.00
2017-10-27T06:54:44.393Z,9.10
2017-10-27T06:55:23.381Z,10.80
2017-10-27T06:56:44.381Z,9.60
2017-10-27T06:57:44.368Z,10.90
2017-10-27T06:58:44.367Z,9.70
2017-10-27T06:59:23.361Z,9.10
2017-10-27T07:00:44.359Z,8.20
2017-10-27T07:01:44.359Z,8.10
2017-10-27T07:02:44.347Z,9.60
2017-10-27T07:03:23.336Z,9.70
2017-10-27T07:04:44.352Z,9.50
2017-10-27T07:05:44.333Z,7.10
2017-10-27T07:06:44.336Z,7.70
2017-10-27T07:07:23.317Z,8.70
2017-10-27T07:08:44.326Z,8.00
2017-10-27T07:09:44.326Z,8.10
2017-10-27T07:10:44.308Z,8.20
2017-10-27T07:11:23.300Z,6.90
2017-10-27T07:12:44.302Z,8.50
2017-10-27T07:13:44.302Z,7.00
2017-10-27T07:14:44.293Z,7.30
2017-10-27T07:15:23.311Z,7.40
2017-10-27T07:16:44.283Z,7.70
2017-10-27T07:17:44.281Z,8.50
2017-10-27T07:18:44.278Z,7.60
2017-10-27T07:19:23.282Z,6.60
2017-10-27T07:20:44.269Z,7.90
2017-10-27T07:21:44.259Z,10.30
2017-10-27T07:22:44.253Z,7.50
2017-10-27T07:23:23.279Z,7.90
2017-10-27T07:24:44.244Z,7.80
2017-10-27T07:25:44.239Z,8.30
2017-10-27T07:26:44.238Z,7.60
2017-10-27T07:27:23.226Z,9.70
2017-10-27T07:28:44.228Z,8.60
2017-10-27T07:29:44.223Z,8.60
2017-10-27T07:30:44.222Z,10.20
2017-10-27T07:31:23.257Z,8.50
2017-10-27T07:32:44.212Z,8.20
2017-10-27T07:33:44.208Z,10.90
2017-10-27T07:34:44.207Z,7.80
2017-10-27T07:35:23.208Z,9.50
2017-10-27T07:36:44.194Z,8.80
2017-10-27T07:37:44.191Z,9.30
2017-10-27T07:38:44.184Z,9.20
2017-10-27T07:39:23.192Z,11.60
2017-10-27T07:40:44.187Z,9.60
2017-10-27T07:41:44.170Z,9.50
2017-10-27T07:42:44.164Z,10.00
2017-10-27T07:43:23.207Z,7.40
2017-10-27T07:44:44.159Z,9.20
2017-10-27T07:45:44.157Z,9.50
2017-10-27T07:46:44.144Z,11.10
2017-10-27T07:47:23.141Z,8.60
2017-10-27T07:48:44.138Z,8.00
2017-10-27T07:49:44.133Z,9.50
2017-10-27T07:50:44.130Z,10.10
2017-10-27T07:51:23.121Z,10.00
2017-10-27T07:52:44.123Z,8.20
2017-10-27T07:53:44.119Z,8.50
2017-10-27T07:54:44.114Z,10.10
2017-10-27T07:55:23.162Z,9.60
2017-10-27T07:56:44.105Z,12.70
2017-10-27T07:57:44.098Z,8.80
2017-10-27T07:58:44.102Z,9.50
2017-10-27T07:59:23.091Z,9.60
2017-10-27T08:00:44.095Z,9.20
2017-10-27T08:01:44.081Z,9.80
2017-10-27T08:02:44.082Z,9.80
2017-10-27T08:03:23.067Z,9.40
2017-10-27T08:04:44.071Z,10.20
2017-10-27T08:05:44.066Z,8.60
2017-10-27T08:06:44.060Z,8.60
2017-10-27T08:07:23.076Z,8.30
2017-10-27T08:08:44.064Z,9.90
2017-10-27T08:09:44.050Z,10.00
2017-10-27T08:10:44.050Z,7.60
2017-10-27T08:11:23.048Z,8.80
2017-10-27T08:12:44.034Z,9.10
2017-10-27T08:13:44.037Z,11.40
2017-10-27T08:14:44.025Z,9.00
2017-10-27T08:15:23.085Z,9.80
2017-10-27T08:16:44.022Z,8.50
2017-10-27T08:17:44.012Z,10.80
2017-10-27T08:18:44.012Z,10.50
2017-10-27T08:19:23.290Z,7.50
2017-10-27T08:20:44.003Z,12.10
2017-10-27T08:21:43.999Z,12.50
2017-10-27T08:22:43.990Z,8.20
2017-10-27T08:23:23.012Z,7.50
2017-10-27T08:24:43.986Z,7.50
2017-10-27T08:25:43.982Z,7.80
2017-10-27T08:26:43.979Z,8.60
2017-10-27T08:27:23.014Z,8.00
2017-10-27T08:28:43.970Z,8.70
2017-10-27T08:29:43.961Z,8.60
2017-10-27T08:30:43.958Z,7.70
2017-10-27T08:31:23.655Z,8.90
2017-10-27T08:32:43.950Z,8.60
2017-10-27T08:33:43.947Z,9.20
2017-10-27T08:34:43.942Z,10.80
2017-10-27T08:35:22.979Z,8.90
2017-10-27T08:36:43.934Z,8.50
2017-10-27T08:37:43.934Z,10.60
2017-10-27T08:38:43.933Z,9.80
2017-10-27T08:39:22.926Z,7.30
2017-10-27T08:40:43.924Z,11.40
2017-10-27T08:41:43.917Z,8.90
2017-10-27T08:42:43.913Z,9.30
2017-10-27T08:43:22.903Z,9.30
2017-10-27T08:44:43.904Z,9.80
2017-10-27T08:45:43.897Z,9.60
2017-10-27T08:46:43.909Z,8.10
2017-10-27T08:47:22.885Z,12.50
2017-10-27T08:48:43.887Z,9.20
2017-10-27T08:49:43.884Z,11.80
2017-10-27T08:50:43.887Z,9.70
2017-10-27T08:51:22.867Z,8.20
2017-10-27T08:52:43.883Z,10.30
2017-10-27T08:53:43.874Z,10.20
2017-10-27T08:54:43.863Z,10.10
2017-10-27T08:55:22.860Z,11.20
2017-10-27T08:56:43.853Z,10.30
2017-10-27T08:57:43.852Z,11.10
2017-10-27T08:58:43.848Z,12.20
2017-10-27T08:59:24.229Z,9.00
2017-10-27T09:00:45.203Z,11.10
2017-10-27T09:01:43.832Z,9.30
2017-10-27T09:02:43.833Z,11.40
2017-10-27T09:03:22.823Z,9.80
2017-10-27T09:04:43.827Z,8.40
2017-10-27T09:05:43.819Z,11.20
2017-10-27T09:06:43.820Z,9.00
2017-10-27T09:07:22.803Z,8.70
2017-10-27T09:08:43.810Z,10.00
2017-10-27T09:09:43.802Z,9.60
2017-10-27T09:10:43.800Z,8.90
2017-10-27T09:11:22.790Z,9.30
2017-10-27T09:12:43.791Z,11.20
2017-10-27T09:13:43.790Z,10.10
2017-10-27T09:14:43.801Z,9.70
2017-10-27T09:15:22.772Z,7.60
2017-10-27T09:16:43.795Z,9.50
2017-10-27T09:17:43.773Z,8.60
2017-10-27T09:18:43.765Z,9.30
2017-10-27T09:19:22.756Z,7.40
2017-10-27T09:20:43.778Z,6.90
2017-10-27T09:21:43.757Z,8.20
2017-10-27T09:22:43.750Z,7.60
2017-10-27T09:23:22.735Z,9.60
2017-10-27T09:24:43.768Z,6.70
2017-10-27T09:25:43.754Z,9.90
2017-10-27T09:26:43.749Z,5.50
2017-10-27T09:27:22.726Z,8.80
2017-10-27T09:28:43.752Z,8.30
2017-10-27T09:29:43.721Z,6.40
2017-10-27T09:30:43.720Z,5.90
2017-10-27T09:31:22.729Z,7.60
2017-10-27T09:32:43.711Z,6.50
2017-10-27T09:33:43.707Z,6.80
2017-10-27T09:34:43.703Z,8.80
2017-10-27T09:35:22.688Z,7.60
2017-10-27T09:36:43.696Z,7.70
2017-10-27T09:37:43.692Z,7.10
2017-10-27T09:38:43.688Z,6.40
2017-10-27T09:39:22.673Z,7.20
2017-10-27T09:40:43.718Z,7.20
2017-10-27T09:41:43.681Z,7.00
2017-10-27T09:42:43.726Z,5.50
2017-10-27T09:43:22.655Z,7.50
2017-10-27T09:44:43.724Z,8.20
2017-10-27T09:45:43.719Z,8.30
2017-10-27T09:46:43.645Z,4.80
2017-10-27T09:47:22.638Z,6.20
2017-10-27T09:48:43.672Z,6.70
2017-10-27T09:49:43.638Z,7.30
2017-10-27T09:50:43.682Z,5.70
2017-10-27T09:51:22.635Z,5.10
2017-10-27T09:52:43.632Z,6.50
2017-10-27T09:53:43.639Z,5.80
2017-10-27T09:54:43.624Z,6.20
2017-10-27T09:55:22.605Z,6.10
2017-10-27T09:56:43.610Z,6.10
2017-10-27T09:57:43.649Z,3.70
2017-10-27T09:58:43.604Z,5.40
2017-10-27T09:59:22.596Z,4.10
2017-10-27T10:00:43.639Z,3.60
2017-10-27T10:01:43.615Z,6.20
2017-10-27T10:02:43.651Z,4.80
2017-10-27T10:03:22.573Z,5.90
2017-10-27T10:04:43.708Z,5.20
2017-10-27T10:05:43.613Z,4.70
2017-10-27T10:06:43.646Z,4.90
2017-10-27T10:07:22.556Z,6.00
2017-10-27T10:08:43.563Z,4.30
2017-10-27T10:09:43.590Z,7.00
2017-10-27T10:10:43.579Z,5.00
2017-10-27T10:11:22.543Z,5.20
2017-10-27T10:12:43.555Z,5.00
2017-10-27T10:13:43.566Z,4.70
2017-10-27T10:14:43.584Z,4.60
2017-10-27T10:15:22.533Z,4.50
2017-10-27T10:16:43.574Z,3.30
2017-10-27T10:17:43.578Z,4.20
2017-10-27T10:18:43.560Z,3.50
2017-10-27T10:19:22.508Z,4.20
2017-10-27T10:20:43.591Z,3.20
2017-10-27T10:21:43.507Z,5.00
2017-10-27T10:22:43.512Z,3.00
2017-10-27T10:23:22.491Z,3.00
2017-10-27T10:24:43.498Z,5.00
2017-10-27T10:25:43.505Z,3.20
2017-10-27T10:26:43.526Z,4.70
2017-10-27T10:27:22.476Z,4.30
2017-10-27T10:28:43.481Z,3.70
2017-10-27T10:29:43.513Z,3.30
2017-10-27T10:30:43.500Z,3.00
2017-10-27T10:31:22.472Z,3.10
2017-10-27T10:32:43.485Z,3.10
2017-10-27T10:33:43.483Z,4.80
2017-10-27T10:34:43.467Z,4.50
2017-10-27T10:35:22.450Z,2.20
2017-10-27T10:36:43.449Z,3.70
2017-10-27T10:37:43.443Z,4.60
2017-10-27T10:38:43.440Z,5.40
2017-10-27T10:39:22.454Z,5.60
2017-10-27T10:40:43.440Z,5.40
2017-10-27T10:41:43.431Z,3.90
2017-10-27T10:42:43.433Z,5.30
2017-10-27T10:43:22.417Z,4.70
2017-10-27T10:44:43.425Z,3.90
2017-10-27T10:45:43.413Z,5.50
2017-10-27T10:46:43.422Z,4.80
2017-10-27T10:47:22.402Z,4.40
2017-10-27T10:48:43.422Z,3.90
2017-10-27T10:49:43.418Z,4.60
2017-10-27T10:50:44.261Z,5.80
2017-10-27T10:51:22.391Z,5.80
2017-10-27T10:52:43.398Z,4.30
2017-10-27T10:53:43.383Z,3.50
2017-10-27T10:54:43.378Z,3.90
2017-10-27T10:55:22.376Z,4.00
2017-10-27T10:56:43.380Z,3.40
2017-10-27T10:57:43.376Z,3.00
2017-10-27T10:58:43.366Z,4.20
2017-10-27T10:59:22.356Z,4.70
2017-10-27T11:00:43.361Z,5.10
2017-10-27T11:01:43.362Z,3.10
2017-10-27T11:02:43.354Z,3.50
2017-10-27T11:03:22.341Z,4.40
2017-10-27T11:04:43.346Z,4.10
2017-10-27T11:05:43.347Z,3.90
2017-10-27T11:06:43.338Z,2.70
2017-10-27T11:07:22.331Z,3.40
2017-10-27T11:08:43.333Z,4.20
2017-10-27T11:09:43.331Z,5.00
2017-10-27T11:10:43.334Z,5.20
2017-10-27T11:11:22.315Z,7.90
2017-10-27T11:12:43.329Z,5.60
2017-10-27T11:13:43.317Z,5.50
2017-10-27T11:14:43.321Z,5.10
2017-10-27T11:15:22.308Z,3.00
2017-10-27T11:16:43.311Z,4.00
2017-10-27T11:17:43.310Z,3.60
2017-10-27T11:18:43.303Z,4.50
2017-10-27T11:19:22.301Z,4.20
2017-10-27T11:20:43.311Z,4.30
2017-10-27T11:21:43.292Z,4.70
2017-10-27T11:22:43.301Z,5.00
2017-10-27T11:23:22.286Z,4.60
2017-10-27T11:24:43.289Z,5.70
2017-10-27T11:25:43.289Z,4.20
2017-10-27T11:26:43.288Z,3.90
2017-10-27T11:27:22.278Z,5.00
2017-10-27T11:28:43.277Z,4.30
2017-10-27T11:29:43.272Z,3.70
2017-10-27T11:30:43.273Z,3.30
2017-10-27T11:31:22.263Z,3.90
2017-10-27T11:32:43.261Z,3.40
2017-10-27T11:33:43.263Z,6.20
2017-10-27T11:34:43.264Z,5.70
2017-10-27T11:35:22.256Z,5.40
2017-10-27T11:36:44.211Z,3.70
2017-10-27T11:37:43.251Z,4.90
2017-10-27T11:38:43.246Z,6.20
2017-10-27T11:39:22.235Z,4.70
2017-10-27T11:40:43.243Z,4.90
2017-10-27T11:41:43.237Z,4.50
2017-10-27T11:42:43.234Z,5.90
2017-10-27T11:43:22.230Z,4.10
2017-10-27T11:44:43.231Z,3.90
2017-10-27T11:45:43.221Z,6.50
2017-10-27T11:46:43.221Z,4.80
2017-10-27T11:47:22.209Z,6.50
2017-10-27T11:48:43.219Z,3.60
2017-10-27T11:49:43.212Z,4.20
2017-10-27T11:50:43.209Z,5.10
2017-10-27T11:51:22.199Z,4.30
2017-10-27T11:52:43.203Z,4.20
2017-10-27T11:53:43.204Z,5.60
2017-10-27T11:54:43.201Z,4.80
2017-10-27T11:55:22.187Z,4.50
2017-10-27T11:56:43.196Z,4.90
2017-10-27T11:57:43.200Z,4.40
2017-10-27T11:58:43.194Z,4.80
2017-10-27T11:59:22.180Z,3.20
2017-10-27T12:00:43.183Z,5.30
2017-10-27T12:01:43.185Z,7.30
2017-10-27T12:02:43.172Z,5.70
2017-10-27T12:03:22.179Z,4.80
2017-10-27T12:04:43.177Z,5.70
2017-10-27T12:05:43.170Z,5.10
2017-10-27T12:06:43.172Z,3.10
2017-10-27T12:07:22.155Z,4.70
2017-10-27T12:08:43.163Z,5.40
2017-10-27T12:09:43.157Z,4.50
2017-10-27T12:10:43.169Z,5.40
2017-10-27T12:11:22.143Z,6.00
2017-10-27T12:12:43.149Z,4.60
2017-10-27T12:13:43.144Z,6.40
2017-10-27T12:14:43.150Z,6.10
2017-10-27T12:15:22.135Z,5.00
2017-10-27T12:16:43.136Z,4.70
2017-10-27T12:17:43.137Z,6.20
2017-10-27T12:18:43.146Z,5.10
2017-10-27T12:19:22.125Z,5.50
2017-10-27T12:20:43.132Z,5.40
2017-10-27T12:21:43.126Z,6.80
2017-10-27T12:22:43.128Z,5.20
2017-10-27T12:23:22.115Z,6.10
2017-10-27T12:24:43.123Z,5.30
2017-10-27T12:25:43.119Z,4.50
2017-10-27T12:26:43.116Z,5.50
2017-10-27T12:27:22.106Z,4.30
2017-10-27T12:28:43.114Z,4.70
2017-10-27T12:29:43.102Z,4.50
2017-10-27T12:30:43.775Z,5.60
2017-10-27T12:31:22.093Z,5.50
2017-10-27T12:32:43.100Z,3.60
2017-10-27T12:33:43.098Z,5.40
2017-10-27T12:34:43.095Z,6.40
2017-10-27T12:35:22.087Z,5.90
2017-10-27T12:36:43.089Z,6.60
2017-10-27T12:37:43.087Z,3.60
2017-10-27T12:38:43.087Z,4.40
2017-10-27T12:39:22.075Z,5.80
2017-10-27T12:40:43.079Z,6.20
2017-10-27T12:41:43.075Z,5.70
2017-10-27T12:42:43.080Z,6.00
2017-10-27T12:43:22.067Z,4.40
2017-10-27T12:44:43.151Z,6.00
2017-10-27T12:45:43.074Z,4.40
2017-10-27T12:46:43.060Z,4.90
2017-10-27T12:47:22.052Z,5.30
2017-10-27T12:48:43.062Z,4.60
2017-10-27T12:49:43.058Z,5.00
2017-10-27T12:50:43.067Z,5.30
2017-10-27T12:51:22.045Z,6.60
2017-10-27T12:52:43.046Z,6.10
2017-10-27T12:53:43.435Z,4.80
2017-10-27T12:54:43.040Z,6.20
2017-10-27T12:55:22.031Z,4.30
2017-10-27T12:56:43.047Z,6.30
2017-10-27T12:57:43.033Z,8.60
2017-10-27T12:58:43.050Z,7.50
2017-10-27T12:59:22.026Z,8.60
2017-10-27T13:00:43.033Z,6.20
2017-10-27T13:01:43.024Z,4.90
2017-10-27T13:02:43.026Z,5.80
2017-10-27T13:03:22.015Z,5.70
2017-10-27T13:04:43.023Z,7.50
2017-10-27T13:05:43.022Z,6.70
2017-10-27T13:06:43.020Z,6.40
2017-10-27T13:07:22.014Z,4.90